sensor_id;sensor_type;location;lat;lon;timestamp;temperature;humidity
51559;DHT22;61650;48.882;2.092;2022-12-10T00:00:23;0.10;91.30
51559;DHT22;61650;48.882;2.092;2022-12-10T00:02:48;0.00;90.80
51559;DHT22;61650;48.882;2.092;2022-12-10T00:05:14;0.10;91.10
51559;DHT22;61650;48.882;2.092;2022-12-10T00:07:39;0.10;91.50
51559;DHT22;61650;48.882;2.092;2022-12-10T00:10:05;0.20;91.40
51559;DHT22;61650;48.882;2.092;2022-12-10T00:12:31;0.10;90.50
51559;DHT22;61650;48.882;2.092;2022-12-10T00:14:57;0.00;90.90
51559;DHT22;61650;48.882;2.092;2022-12-10T00:17:22;0.00;91.10
51559;DHT22;61650;48.882;2.092;2022-12-10T00:19:48;0.00;91.30
51559;DHT22;61650;48.882;2.092;2022-12-10T00:22:13;0.00;91.40
51559;DHT22;61650;48.882;2.092;2022-12-10T00:24:39;0.10;91.40
51559;DHT22;61650;48.882;2.092;2022-12-10T00:27:04;0.20;91.10
51559;DHT22;61650;48.882;2.092;2022-12-10T00:29:30;0.20;90.90
51559;DHT22;61650;48.882;2.092;2022-12-10T00:31:56;0.30;91.10
51559;DHT22;61650;48.882;2.092;2022-12-10T00:34:21;0.40;91.10
51559;DHT22;61650;48.882;2.092;2022-12-10T00:36:48;0.40;90.10
51559;DHT22;61650;48.882;2.092;2022-12-10T00:39:18;0.30;89.40
51559;DHT22;61650;48.882;2.092;2022-12-10T00:41:44;0.40;89.50
51559;DHT22;61650;48.882;2.092;2022-12-10T00:44:10;0.40;89.40
51559;DHT22;61650;48.882;2.092;2022-12-10T00:46:35;0.40;89.00
51559;DHT22;61650;48.882;2.092;2022-12-10T00:49:01;0.30;89.10
51559;DHT22;61650;48.882;2.092;2022-12-10T00:51:28;0.30;89.40
51559;DHT22;61650;48.882;2.092;2022-12-10T00:53:55;0.30;89.50
51559;DHT22;61650;48.882;2.092;2022-12-10T00:56:24;0.20;89.40
51559;DHT22;61650;48.882;2.092;2022-12-10T00:58:50;0.20;89.80
51559;DHT22;61650;48.882;2.092;2022-12-10T01:03:45;0.20;90.00
51559;DHT22;61650;48.882;2.092;2022-12-10T01:06:17;0.40;90.30
51559;DHT22;61650;48.882;2.092;2022-12-10T01:08:44;0.40;89.10
51559;DHT22;61650;48.882;2.092;2022-12-10T01:11:12;0.20;89.40
51559;DHT22;61650;48.882;2.092;2022-12-10T01:13:39;0.20;89.80
51559;DHT22;61650;48.882;2.092;2022-12-10T01:16:07;0.20;89.70
51559;DHT22;61650;48.882;2.092;2022-12-10T01:18:33;0.20;90.10
51559;DHT22;61650;48.882;2.092;2022-12-10T01:21:08;0.20;90.10
51559;DHT22;61650;48.882;2.092;2022-12-10T01:23:37;0.20;89.80
51559;DHT22;61650;48.882;2.092;2022-12-10T01:26:06;0.10;89.70
51559;DHT22;61650;48.882;2.092;2022-12-10T01:28:33;0.10;90.30
51559;DHT22;61650;48.882;2.092;2022-12-10T01:31:02;0.10;90.70
51559;DHT22;61650;48.882;2.092;2022-12-10T01:33:28;0.10;90.90
51559;DHT22;61650;48.882;2.092;2022-12-10T01:35:54;0.10;90.70
51559;DHT22;61650;48.882;2.092;2022-12-10T01:38:19;0.10;90.90
51559;DHT22;61650;48.882;2.092;2022-12-10T01:40:45;0.20;90.90
51559;DHT22;61650;48.882;2.092;2022-12-10T01:43:14;0.20;90.90
51559;DHT22;61650;48.882;2.092;2022-12-10T01:45:40;0.30;91.20
51559;DHT22;61650;48.882;2.092;2022-12-10T01:48:06;0.40;91.10
51559;DHT22;61650;48.882;2.092;2022-12-10T01:50:32;0.40;90.60
51559;DHT22;61650;48.882;2.092;2022-12-10T01:52:57;0.50;90.90
51559;DHT22;61650;48.882;2.092;2022-12-10T01:55:44;0.50;90.70
51559;DHT22;61650;48.882;2.092;2022-12-10T01:58:11;0.40;89.60
51559;DHT22;61650;48.882;2.092;2022-12-10T02:00:48;0.40;89.70
51559;DHT22;61650;48.882;2.092;2022-12-10T02:03:24;0.30;89.80
51559;DHT22;61650;48.882;2.092;2022-12-10T02:06:08;0.20;90.10
51559;DHT22;61650;48.882;2.092;2022-12-10T02:12:17;0.30;90.90
51559;DHT22;61650;48.882;2.092;2022-12-10T02:14:54;0.40;90.40
51559;DHT22;61650;48.882;2.092;2022-12-10T02:17:26;0.30;89.70
51559;DHT22;61650;48.882;2.092;2022-12-10T02:22:28;0.50;90.10
51559;DHT22;61650;48.882;2.092;2022-12-10T02:24:55;0.50;89.80
51559;DHT22;61650;48.882;2.092;2022-12-10T02:27:29;0.40;89.60
51559;DHT22;61650;48.882;2.092;2022-12-10T02:29:58;0.40;89.40
51559;DHT22;61650;48.882;2.092;2022-12-10T02:32:30;0.40;89.50
51559;DHT22;61650;48.882;2.092;2022-12-10T02:34:59;0.40;89.80
51559;DHT22;61650;48.882;2.092;2022-12-10T02:37:34;0.40;90.00
51559;DHT22;61650;48.882;2.092;2022-12-10T02:40:05;0.50;91.00
51559;DHT22;61650;48.882;2.092;2022-12-10T02:42:35;0.50;90.50
51559;DHT22;61650;48.882;2.092;2022-12-10T02:45:04;0.60;90.70
51559;DHT22;61650;48.882;2.092;2022-12-10T02:47:30;0.60;90.60
51559;DHT22;61650;48.882;2.092;2022-12-10T02:49:58;0.60;90.20
51559;DHT22;61650;48.882;2.092;2022-12-10T02:52:24;0.40;89.20
51559;DHT22;61650;48.882;2.092;2022-12-10T02:54:51;0.50;90.30
51559;DHT22;61650;48.882;2.092;2022-12-10T03:05:05;0.60;90.50
51559;DHT22;61650;48.882;2.092;2022-12-10T03:07:41;0.50;90.00
51559;DHT22;61650;48.882;2.092;2022-12-10T03:10:26;0.60;90.50
51559;DHT22;61650;48.882;2.092;2022-12-10T03:13:15;0.50;89.90
51559;DHT22;61650;48.882;2.092;2022-12-10T03:15:42;0.50;89.50
51559;DHT22;61650;48.882;2.092;2022-12-10T03:18:11;0.30;89.30
51559;DHT22;61650;48.882;2.092;2022-12-10T03:20:39;0.40;90.30
51559;DHT22;61650;48.882;2.092;2022-12-10T03:23:09;0.50;90.60
51559;DHT22;61650;48.882;2.092;2022-12-10T03:25:37;0.50;91.00
51559;DHT22;61650;48.882;2.092;2022-12-10T03:28:04;0.60;91.20
51559;DHT22;61650;48.882;2.092;2022-12-10T03:30:32;0.60;91.20
51559;DHT22;61650;48.882;2.092;2022-12-10T03:32:59;0.60;91.00
51559;DHT22;61650;48.882;2.092;2022-12-10T03:35:24;0.60;91.40
51559;DHT22;61650;48.882;2.092;2022-12-10T03:37:51;0.60;90.80
51559;DHT22;61650;48.882;2.092;2022-12-10T03:40:20;0.60;90.90
51559;DHT22;61650;48.882;2.092;2022-12-10T03:42:46;0.60;90.30
51559;DHT22;61650;48.882;2.092;2022-12-10T03:45:12;0.50;89.40
51559;DHT22;61650;48.882;2.092;2022-12-10T03:47:39;0.60;89.90
51559;DHT22;61650;48.882;2.092;2022-12-10T03:50:05;0.50;88.80
51559;DHT22;61650;48.882;2.092;2022-12-10T03:52:31;0.50;89.30
51559;DHT22;61650;48.882;2.092;2022-12-10T03:54:57;0.40;89.40
51559;DHT22;61650;48.882;2.092;2022-12-10T03:57:23;0.50;89.10
51559;DHT22;61650;48.882;2.092;2022-12-10T03:59:49;0.50;88.70
51559;DHT22;61650;48.882;2.092;2022-12-10T04:02:14;0.50;89.20
51559;DHT22;61650;48.882;2.092;2022-12-10T04:04:40;0.40;89.80
51559;DHT22;61650;48.882;2.092;2022-12-10T04:07:05;0.40;90.30
51559;DHT22;61650;48.882;2.092;2022-12-10T04:09:31;0.40;90.50
51559;DHT22;61650;48.882;2.092;2022-12-10T04:11:58;0.30;90.50
51559;DHT22;61650;48.882;2.092;2022-12-10T04:14:24;0.30;90.00
51559;DHT22;61650;48.882;2.092;2022-12-10T04:17:09;0.30;90.50
51559;DHT22;61650;48.882;2.092;2022-12-10T04:19:35;0.40;90.80
51559;DHT22;61650;48.882;2.092;2022-12-10T04:22:01;0.40;90.80
51559;DHT22;61650;48.882;2.092;2022-12-10T04:24:45;0.40;90.00
51559;DHT22;61650;48.882;2.092;2022-12-10T04:27:31;0.40;90.60
51559;DHT22;61650;48.882;2.092;2022-12-10T04:29:59;0.40;90.90
51559;DHT22;61650;48.882;2.092;2022-12-10T04:32:26;0.50;91.20
51559;DHT22;61650;48.882;2.092;2022-12-10T04:34:53;0.60;91.00
51559;DHT22;61650;48.882;2.092;2022-12-10T04:37:19;0.50;90.20
51559;DHT22;61650;48.882;2.092;2022-12-10T04:39:45;0.60;90.50
51559;DHT22;61650;48.882;2.092;2022-12-10T04:42:11;0.60;90.60
51559;DHT22;61650;48.882;2.092;2022-12-10T04:44:37;0.60;90.60
51559;DHT22;61650;48.882;2.092;2022-12-10T04:47:04;0.50;90.90
51559;DHT22;61650;48.882;2.092;2022-12-10T04:49:30;0.60;90.10
51559;DHT22;61650;48.882;2.092;2022-12-10T04:51:56;0.60;89.50
51559;DHT22;61650;48.882;2.092;2022-12-10T04:54:22;0.50;88.80
51559;DHT22;61650;48.882;2.092;2022-12-10T04:56:47;0.40;88.10
51559;DHT22;61650;48.882;2.092;2022-12-10T04:59:14;0.50;89.50
51559;DHT22;61650;48.882;2.092;2022-12-10T05:01:40;0.50;88.90
51559;DHT22;61650;48.882;2.092;2022-12-10T05:04:08;0.50;88.50
51559;DHT22;61650;48.882;2.092;2022-12-10T05:06:34;0.50;89.10
51559;DHT22;61650;48.882;2.092;2022-12-10T05:09:00;0.50;88.10
51559;DHT22;61650;48.882;2.092;2022-12-10T05:11:28;0.50;88.40
51559;DHT22;61650;48.882;2.092;2022-12-10T05:13:54;0.60;88.40
51559;DHT22;61650;48.882;2.092;2022-12-10T05:16:22;0.60;88.10
51559;DHT22;61650;48.882;2.092;2022-12-10T05:18:48;0.50;87.70
51559;DHT22;61650;48.882;2.092;2022-12-10T05:21:17;0.50;87.70
51559;DHT22;61650;48.882;2.092;2022-12-10T05:23:46;0.60;88.20
51559;DHT22;61650;48.882;2.092;2022-12-10T05:26:18;0.60;88.20
51559;DHT22;61650;48.882;2.092;2022-12-10T05:28:49;0.70;89.40
51559;DHT22;61650;48.882;2.092;2022-12-10T05:31:18;0.80;89.40
51559;DHT22;61650;48.882;2.092;2022-12-10T05:33:44;0.80;87.70
51559;DHT22;61650;48.882;2.092;2022-12-10T05:36:12;0.80;87.50
51559;DHT22;61650;48.882;2.092;2022-12-10T05:38:39;0.80;87.30
51559;DHT22;61650;48.882;2.092;2022-12-10T05:41:16;0.90;88.20
51559;DHT22;61650;48.882;2.092;2022-12-10T05:43:43;0.90;88.60
51559;DHT22;61650;48.882;2.092;2022-12-10T05:46:18;0.90;88.80
51559;DHT22;61650;48.882;2.092;2022-12-10T05:48:44;0.80;87.00
51559;DHT22;61650;48.882;2.092;2022-12-10T05:51:16;0.80;87.30
51559;DHT22;61650;48.882;2.092;2022-12-10T05:53:42;0.80;86.90
51559;DHT22;61650;48.882;2.092;2022-12-10T05:56:20;0.80;87.70
51559;DHT22;61650;48.882;2.092;2022-12-10T05:58:49;0.80;88.30
51559;DHT22;61650;48.882;2.092;2022-12-10T06:01:18;0.80;88.80
51559;DHT22;61650;48.882;2.092;2022-12-10T06:03:44;0.90;89.50
51559;DHT22;61650;48.882;2.092;2022-12-10T06:06:10;0.90;89.40
51559;DHT22;61650;48.882;2.092;2022-12-10T06:08:36;0.90;89.10
51559;DHT22;61650;48.882;2.092;2022-12-10T06:11:07;0.90;89.40
51559;DHT22;61650;48.882;2.092;2022-12-10T06:13:33;0.90;88.20
51559;DHT22;61650;48.882;2.092;2022-12-10T06:15:59;0.80;86.90
51559;DHT22;61650;48.882;2.092;2022-12-10T06:18:24;0.80;87.50
51559;DHT22;61650;48.882;2.092;2022-12-10T06:20:50;0.80;88.50
51559;DHT22;61650;48.882;2.092;2022-12-10T06:23:16;0.90;89.20
51559;DHT22;61650;48.882;2.092;2022-12-10T06:25:41;0.90;89.60
51559;DHT22;61650;48.882;2.092;2022-12-10T06:28:08;0.90;89.40
51559;DHT22;61650;48.882;2.092;2022-12-10T06:30:34;1.00;89.90
51559;DHT22;61650;48.882;2.092;2022-12-10T06:33:00;1.00;90.40
51559;DHT22;61650;48.882;2.092;2022-12-10T06:35:26;1.00;90.20
51559;DHT22;61650;48.882;2.092;2022-12-10T06:37:51;1.00;89.50
51559;DHT22;61650;48.882;2.092;2022-12-10T06:40:17;1.00;89.30
51559;DHT22;61650;48.882;2.092;2022-12-10T06:42:43;1.00;88.40
51559;DHT22;61650;48.882;2.092;2022-12-10T06:45:09;0.90;88.30
51559;DHT22;61650;48.882;2.092;2022-12-10T06:47:35;0.90;88.60
51559;DHT22;61650;48.882;2.092;2022-12-10T06:50:01;0.90;87.50
51559;DHT22;61650;48.882;2.092;2022-12-10T06:52:26;0.90;86.90
51559;DHT22;61650;48.882;2.092;2022-12-10T06:54:52;1.00;88.30
51559;DHT22;61650;48.882;2.092;2022-12-10T06:57:19;1.00;88.70
51559;DHT22;61650;48.882;2.092;2022-12-10T06:59:45;1.00;88.90
51559;DHT22;61650;48.882;2.092;2022-12-10T07:02:11;1.00;88.70
51559;DHT22;61650;48.882;2.092;2022-12-10T07:04:36;1.00;87.10
51559;DHT22;61650;48.882;2.092;2022-12-10T07:07:02;1.00;86.40
51559;DHT22;61650;48.882;2.092;2022-12-10T07:09:28;1.00;87.10
51559;DHT22;61650;48.882;2.092;2022-12-10T07:11:54;1.00;87.70
51559;DHT22;61650;48.882;2.092;2022-12-10T07:14:19;1.00;87.60
51559;DHT22;61650;48.882;2.092;2022-12-10T07:16:45;1.10;88.70
51559;DHT22;61650;48.882;2.092;2022-12-10T07:19:11;1.10;88.60
51559;DHT22;61650;48.882;2.092;2022-12-10T07:21:40;1.10;88.60
51559;DHT22;61650;48.882;2.092;2022-12-10T07:24:10;1.10;88.80
51559;DHT22;61650;48.882;2.092;2022-12-10T07:26:39;1.10;89.00
51559;DHT22;61650;48.882;2.092;2022-12-10T07:29:07;1.10;88.40
51559;DHT22;61650;48.882;2.092;2022-12-10T07:31:33;1.10;89.10
51559;DHT22;61650;48.882;2.092;2022-12-10T07:33:59;1.20;89.30
51559;DHT22;61650;48.882;2.092;2022-12-10T07:36:25;1.10;89.20
51559;DHT22;61650;48.882;2.092;2022-12-10T07:38:53;1.20;89.90
51559;DHT22;61650;48.882;2.092;2022-12-10T07:41:19;1.20;90.20
51559;DHT22;61650;48.882;2.092;2022-12-10T07:43:46;1.20;90.10
51559;DHT22;61650;48.882;2.092;2022-12-10T07:46:21;1.20;88.70
51559;DHT22;61650;48.882;2.092;2022-12-10T07:48:48;1.20;88.80
51559;DHT22;61650;48.882;2.092;2022-12-10T07:51:15;1.20;88.20
51559;DHT22;61650;48.882;2.092;2022-12-10T07:53:42;1.20;88.50
51559;DHT22;61650;48.882;2.092;2022-12-10T07:56:08;1.20;88.50
51559;DHT22;61650;48.882;2.092;2022-12-10T07:58:35;1.20;86.80
51559;DHT22;61650;48.882;2.092;2022-12-10T08:01:09;1.20;88.00
51559;DHT22;61650;48.882;2.092;2022-12-10T08:03:35;1.20;88.30
51559;DHT22;61650;48.882;2.092;2022-12-10T08:06:06;1.20;89.30
51559;DHT22;61650;48.882;2.092;2022-12-10T08:08:36;1.10;86.90
51559;DHT22;61650;48.882;2.092;2022-12-10T08:11:03;1.20;87.70
51559;DHT22;61650;48.882;2.092;2022-12-10T08:13:29;1.30;87.30
51559;DHT22;61650;48.882;2.092;2022-12-10T08:16:01;1.20;86.80
51559;DHT22;61650;48.882;2.092;2022-12-10T08:18:28;1.20;84.70
51559;DHT22;61650;48.882;2.092;2022-12-10T08:20:53;1.20;85.10
51559;DHT22;61650;48.882;2.092;2022-12-10T08:23:19;1.20;86.20
51559;DHT22;61650;48.882;2.092;2022-12-10T08:25:44;1.20;84.70
51559;DHT22;61650;48.882;2.092;2022-12-10T08:28:10;1.30;85.70
51559;DHT22;61650;48.882;2.092;2022-12-10T08:30:36;1.30;87.00
51559;DHT22;61650;48.882;2.092;2022-12-10T08:33:01;1.50;87.00
51559;DHT22;61650;48.882;2.092;2022-12-10T08:35:27;1.50;85.80
51559;DHT22;61650;48.882;2.092;2022-12-10T08:37:52;1.30;83.40
51559;DHT22;61650;48.882;2.092;2022-12-10T08:40:18;1.30;84.90
51559;DHT22;61650;48.882;2.092;2022-12-10T08:42:43;1.30;83.40
51559;DHT22;61650;48.882;2.092;2022-12-10T08:45:09;1.30;83.90
51559;DHT22;61650;48.882;2.092;2022-12-10T08:47:35;1.40;84.40
51559;DHT22;61650;48.882;2.092;2022-12-10T08:50:00;1.40;85.90
51559;DHT22;61650;48.882;2.092;2022-12-10T08:52:26;1.40;84.90
51559;DHT22;61650;48.882;2.092;2022-12-10T08:54:54;1.40;86.80
51559;DHT22;61650;48.882;2.092;2022-12-10T08:57:20;1.50;86.70
51559;DHT22;61650;48.882;2.092;2022-12-10T08:59:45;1.50;84.10
51559;DHT22;61650;48.882;2.092;2022-12-10T09:02:11;1.30;83.20
51559;DHT22;61650;48.882;2.092;2022-12-10T09:04:37;1.30;84.20
51559;DHT22;61650;48.882;2.092;2022-12-10T09:07:04;1.20;83.50
51559;DHT22;61650;48.882;2.092;2022-12-10T09:09:31;1.20;83.70
51559;DHT22;61650;48.882;2.092;2022-12-10T09:11:57;1.30;84.70
51559;DHT22;61650;48.882;2.092;2022-12-10T09:14:23;1.30;83.20
51559;DHT22;61650;48.882;2.092;2022-12-10T09:16:49;1.30;82.90
51559;DHT22;61650;48.882;2.092;2022-12-10T09:19:15;1.30;83.20
51559;DHT22;61650;48.882;2.092;2022-12-10T09:21:41;1.40;83.80
51559;DHT22;61650;48.882;2.092;2022-12-10T09:24:07;1.60;84.00
51559;DHT22;61650;48.882;2.092;2022-12-10T09:26:33;1.60;84.90
51559;DHT22;61650;48.882;2.092;2022-12-10T09:28:58;1.70;83.60
51559;DHT22;61650;48.882;2.092;2022-12-10T09:31:25;1.50;82.40
51559;DHT22;61650;48.882;2.092;2022-12-10T09:33:52;1.50;83.80
51559;DHT22;61650;48.882;2.092;2022-12-10T09:36:18;1.60;82.70
51559;DHT22;61650;48.882;2.092;2022-12-10T09:38:45;1.70;83.90
51559;DHT22;61650;48.882;2.092;2022-12-10T09:46:58;1.70;86.00
51559;DHT22;61650;48.882;2.092;2022-12-10T09:49:45;1.90;86.40
51559;DHT22;61650;48.882;2.092;2022-12-10T09:52:18;2.00;82.30
51559;DHT22;61650;48.882;2.092;2022-12-10T09:54:52;2.00;82.90
51559;DHT22;61650;48.882;2.092;2022-12-10T09:57:31;2.10;81.90
51559;DHT22;61650;48.882;2.092;2022-12-10T10:00:03;2.20;82.50
51559;DHT22;61650;48.882;2.092;2022-12-10T10:02:30;2.10;80.10
51559;DHT22;61650;48.882;2.092;2022-12-10T10:05:11;2.10;80.90
51559;DHT22;61650;48.882;2.092;2022-12-10T10:07:43;2.10;80.80
51559;DHT22;61650;48.882;2.092;2022-12-10T10:12:46;2.00;79.40
51559;DHT22;61650;48.882;2.092;2022-12-10T10:15:15;1.90;81.60
51559;DHT22;61650;48.882;2.092;2022-12-10T10:17:42;2.00;82.80
51559;DHT22;61650;48.882;2.092;2022-12-10T10:20:11;1.90;79.90
51559;DHT22;61650;48.882;2.092;2022-12-10T10:22:38;1.90;82.50
51559;DHT22;61650;48.882;2.092;2022-12-10T10:25:05;2.10;81.60
51559;DHT22;61650;48.882;2.092;2022-12-10T10:27:31;2.10;82.10
51559;DHT22;61650;48.882;2.092;2022-12-10T10:30:00;2.20;84.70
51559;DHT22;61650;48.882;2.092;2022-12-10T10:35:01;2.10;80.60
51559;DHT22;61650;48.882;2.092;2022-12-10T10:37:30;2.10;78.30
51559;DHT22;61650;48.882;2.092;2022-12-10T10:39:57;2.20;80.50
51559;DHT22;61650;48.882;2.092;2022-12-10T10:42:36;2.40;84.30
51559;DHT22;61650;48.882;2.092;2022-12-10T10:45:05;2.40;81.50
51559;DHT22;61650;48.882;2.092;2022-12-10T10:47:32;2.40;79.30
51559;DHT22;61650;48.882;2.092;2022-12-10T10:49:58;2.40;78.90
51559;DHT22;61650;48.882;2.092;2022-12-10T10:52:28;2.30;77.70
51559;DHT22;61650;48.882;2.092;2022-12-10T10:54:54;2.20;78.40
51559;DHT22;61650;48.882;2.092;2022-12-10T10:57:25;2.20;81.40
51559;DHT22;61650;48.882;2.092;2022-12-10T10:59:55;2.40;81.00
51559;DHT22;61650;48.882;2.092;2022-12-10T11:02:34;2.40;78.00
51559;DHT22;61650;48.882;2.092;2022-12-10T11:07:47;2.20;77.40
51559;DHT22;61650;48.882;2.092;2022-12-10T11:10:22;2.10;79.30
51559;DHT22;61650;48.882;2.092;2022-12-10T11:13:03;2.20;79.50
51559;DHT22;61650;48.882;2.092;2022-12-10T11:15:37;2.20;80.10
51559;DHT22;61650;48.882;2.092;2022-12-10T11:18:29;2.40;80.40
51559;DHT22;61650;48.882;2.092;2022-12-10T11:23:43;2.40;79.10
51559;DHT22;61650;48.882;2.092;2022-12-10T11:37:41;3.00;79.10
51559;DHT22;61650;48.882;2.092;2022-12-10T11:43:13;2.90;77.10
51559;DHT22;61650;48.882;2.092;2022-12-10T11:46:26;3.00;77.40
51559;DHT22;61650;48.882;2.092;2022-12-10T11:49:31;3.00;76.30
51559;DHT22;61650;48.882;2.092;2022-12-10T11:58:28;2.80;75.90
51559;DHT22;61650;48.882;2.092;2022-12-10T12:01:07;2.70;76.90
51559;DHT22;61650;48.882;2.092;2022-12-10T12:06:34;2.90;78.30
51559;DHT22;61650;48.882;2.092;2022-12-10T12:14:58;2.90;76.00
51559;DHT22;61650;48.882;2.092;2022-12-10T12:17:33;2.70;76.30
51559;DHT22;61650;48.882;2.092;2022-12-10T12:20:04;2.60;77.70
51559;DHT22;61650;48.882;2.092;2022-12-10T12:22:37;2.60;76.80
51559;DHT22;61650;48.882;2.092;2022-12-10T12:25:16;2.50;76.30
51559;DHT22;61650;48.882;2.092;2022-12-10T12:28:32;2.50;76.00
51559;DHT22;61650;48.882;2.092;2022-12-10T12:30:39;2.60;75.40
51559;DHT22;61650;48.882;2.092;2022-12-10T12:33:42;2.50;75.90
51559;DHT22;61650;48.882;2.092;2022-12-10T12:36:24;2.60;76.20
51559;DHT22;61650;48.882;2.092;2022-12-10T12:44:57;2.80;76.70
51559;DHT22;61650;48.882;2.092;2022-12-10T12:49:55;2.80;74.20
51559;DHT22;61650;48.882;2.092;2022-12-10T12:52:41;2.70;75.00
51559;DHT22;61650;48.882;2.092;2022-12-10T12:55:18;2.50;76.40
51559;DHT22;61650;48.882;2.092;2022-12-10T12:57:50;2.60;77.80
51559;DHT22;61650;48.882;2.092;2022-12-10T13:00:21;2.60;76.60
51559;DHT22;61650;48.882;2.092;2022-12-10T13:05:46;2.60;74.90
51559;DHT22;61650;48.882;2.092;2022-12-10T13:08:23;2.50;76.40
51559;DHT22;61650;48.882;2.092;2022-12-10T13:13:33;2.40;77.10
51559;DHT22;61650;48.882;2.092;2022-12-10T13:22:04;2.70;78.50
51559;DHT22;61650;48.882;2.092;2022-12-10T13:24:46;2.70;78.10
51559;DHT22;61650;48.882;2.092;2022-12-10T13:29:55;3.00;78.30
51559;DHT22;61650;48.882;2.092;2022-12-10T13:35:27;3.00;77.70
51559;DHT22;61650;48.882;2.092;2022-12-10T13:38:02;2.80;78.60
51559;DHT22;61650;48.882;2.092;2022-12-10T13:46:54;2.40;76.60
51559;DHT22;61650;48.882;2.092;2022-12-10T13:49:23;2.30;76.60
51559;DHT22;61650;48.882;2.092;2022-12-10T13:52:00;2.30;76.60
51559;DHT22;61650;48.882;2.092;2022-12-10T14:00:08;2.20;78.20
51559;DHT22;61650;48.882;2.092;2022-12-10T14:05:23;2.30;77.10
51559;DHT22;61650;48.882;2.092;2022-12-10T14:07:54;2.30;78.70
51559;DHT22;61650;48.882;2.092;2022-12-10T14:10:26;2.40;80.10
51559;DHT22;61650;48.882;2.092;2022-12-10T14:12:53;2.50;79.40
51559;DHT22;61650;48.882;2.092;2022-12-10T14:15:26;2.50;78.50
51559;DHT22;61650;48.882;2.092;2022-12-10T14:18:03;2.40;75.90
51559;DHT22;61650;48.882;2.092;2022-12-10T14:20:34;2.20;76.20
51559;DHT22;61650;48.882;2.092;2022-12-10T14:23:04;1.90;76.90
51559;DHT22;61650;48.882;2.092;2022-12-10T14:25:51;1.90;77.60
51559;DHT22;61650;48.882;2.092;2022-12-10T14:28:18;1.90;77.90
51559;DHT22;61650;48.882;2.092;2022-12-10T14:30:48;1.90;78.40
51559;DHT22;61650;48.882;2.092;2022-12-10T14:33:18;2.00;77.40
51559;DHT22;61650;48.882;2.092;2022-12-10T14:35:50;2.00;79.20
51559;DHT22;61650;48.882;2.092;2022-12-10T14:38:30;2.10;80.70
51559;DHT22;61650;48.882;2.092;2022-12-10T14:40:58;2.10;79.80
51559;DHT22;61650;48.882;2.092;2022-12-10T14:43:35;2.10;80.00
51559;DHT22;61650;48.882;2.092;2022-12-10T14:46:03;2.00;78.60
51559;DHT22;61650;48.882;2.092;2022-12-10T14:48:28;2.00;80.00
51559;DHT22;61650;48.882;2.092;2022-12-10T14:50:56;2.00;80.90
51559;DHT22;61650;48.882;2.092;2022-12-10T14:53:28;1.90;78.70
51559;DHT22;61650;48.882;2.092;2022-12-10T14:55:58;1.80;79.80
51559;DHT22;61650;48.882;2.092;2022-12-10T14:58:35;1.80;79.60
51559;DHT22;61650;48.882;2.092;2022-12-10T15:01:02;1.80;79.90
51559;DHT22;61650;48.882;2.092;2022-12-10T15:03:45;1.70;80.50
51559;DHT22;61650;48.882;2.092;2022-12-10T15:06:15;1.70;81.10
51559;DHT22;61650;48.882;2.092;2022-12-10T15:08:42;1.50;81.10
51559;DHT22;61650;48.882;2.092;2022-12-10T15:11:14;1.50;82.20
51559;DHT22;61650;48.882;2.092;2022-12-10T15:13:43;1.40;83.30
51559;DHT22;61650;48.882;2.092;2022-12-10T15:18:54;1.00;82.50
51559;DHT22;61650;48.882;2.092;2022-12-10T15:21:24;0.90;82.60
51559;DHT22;61650;48.882;2.092;2022-12-10T15:24:07;0.90;83.20
51559;DHT22;61650;48.882;2.092;2022-12-10T15:26:33;0.80;82.60
51559;DHT22;61650;48.882;2.092;2022-12-10T15:29:36;0.70;83.20
51559;DHT22;61650;48.882;2.092;2022-12-10T15:32:05;0.60;83.60
51559;DHT22;61650;48.882;2.092;2022-12-10T15:34:42;0.50;84.20
51559;DHT22;61650;48.882;2.092;2022-12-10T15:37:20;0.50;84.60
51559;DHT22;61650;48.882;2.092;2022-12-10T15:39:51;0.50;84.80
51559;DHT22;61650;48.882;2.092;2022-12-10T15:42:41;0.40;84.80
51559;DHT22;61650;48.882;2.092;2022-12-10T15:45:37;0.30;84.60
51559;DHT22;61650;48.882;2.092;2022-12-10T15:48:11;0.20;85.40
51559;DHT22;61650;48.882;2.092;2022-12-10T15:50:39;0.10;85.70
51559;DHT22;61650;48.882;2.092;2022-12-10T15:53:12;0.10;86.00
51559;DHT22;61650;48.882;2.092;2022-12-10T15:55:38;0.00;85.90
51559;DHT22;61650;48.882;2.092;2022-12-10T15:58:11;0.00;86.00
51559;DHT22;61650;48.882;2.092;2022-12-10T16:00:37;-0.10;86.40
51559;DHT22;61650;48.882;2.092;2022-12-10T16:03:05;-0.10;86.40
51559;DHT22;61650;48.882;2.092;2022-12-10T16:05:37;-0.10;86.70
51559;DHT22;61650;48.882;2.092;2022-12-10T16:08:20;-0.20;86.60
51559;DHT22;61650;48.882;2.092;2022-12-10T16:10:47;-0.20;86.70
51559;DHT22;61650;48.882;2.092;2022-12-10T16:13:18;-0.30;86.80
51559;DHT22;61650;48.882;2.092;2022-12-10T16:16:04;-0.30;87.00
51559;DHT22;61650;48.882;2.092;2022-12-10T16:18:30;-0.40;87.10
51559;DHT22;61650;48.882;2.092;2022-12-10T16:20:56;-0.50;87.00
51559;DHT22;61650;48.882;2.092;2022-12-10T16:23:21;-0.50;88.00
51559;DHT22;61650;48.882;2.092;2022-12-10T16:25:47;-0.60;87.00
51559;DHT22;61650;48.882;2.092;2022-12-10T16:28:19;-0.70;87.60
51559;DHT22;61650;48.882;2.092;2022-12-10T16:30:46;-0.70;87.70
51559;DHT22;61650;48.882;2.092;2022-12-10T16:33:14;-0.80;87.90
51559;DHT22;61650;48.882;2.092;2022-12-10T16:35:41;-0.80;88.20
51559;DHT22;61650;48.882;2.092;2022-12-10T16:38:07;-0.80;87.50
51559;DHT22;61650;48.882;2.092;2022-12-10T16:40:32;-0.90;87.70
51559;DHT22;61650;48.882;2.092;2022-12-10T16:42:58;-1.00;88.10
51559;DHT22;61650;48.882;2.092;2022-12-10T16:45:36;-1.00;88.70
51559;DHT22;61650;48.882;2.092;2022-12-10T16:48:02;-1.00;88.10
51559;DHT22;61650;48.882;2.092;2022-12-10T16:50:28;-1.00;88.30
51559;DHT22;61650;48.882;2.092;2022-12-10T16:52:55;-1.10;88.00
51559;DHT22;61650;48.882;2.092;2022-12-10T16:55:23;-1.10;88.20
51559;DHT22;61650;48.882;2.092;2022-12-10T16:57:49;-1.10;88.60
51559;DHT22;61650;48.882;2.092;2022-12-10T17:00:18;-1.10;88.60
51559;DHT22;61650;48.882;2.092;2022-12-10T17:02:45;-1.10;88.90
51559;DHT22;61650;48.882;2.092;2022-12-10T17:05:31;-1.10;88.50
51559;DHT22;61650;48.882;2.092;2022-12-10T17:07:57;-1.00;89.30
51559;DHT22;61650;48.882;2.092;2022-12-10T17:10:23;-0.80;89.30
51559;DHT22;61650;48.882;2.092;2022-12-10T17:13:12;-0.60;88.60
51559;DHT22;61650;48.882;2.092;2022-12-10T17:15:40;-0.50;87.70
51559;DHT22;61650;48.882;2.092;2022-12-10T17:18:12;-0.40;87.60
51559;DHT22;61650;48.882;2.092;2022-12-10T17:20:38;-0.50;87.40
51559;DHT22;61650;48.882;2.092;2022-12-10T17:23:04;-0.50;87.40
51559;DHT22;61650;48.882;2.092;2022-12-10T17:25:30;-0.50;87.40
51559;DHT22;61650;48.882;2.092;2022-12-10T17:27:58;-0.60;87.50
51559;DHT22;61650;48.882;2.092;2022-12-10T17:37:20;-0.70;88.00
51559;DHT22;61650;48.882;2.092;2022-12-10T18:06:24;-1.20;89.10
51559;DHT22;61650;48.882;2.092;2022-12-10T18:09:00;-1.10;89.70
51559;DHT22;61650;48.882;2.092;2022-12-10T18:12:00;-1.10;89.90
51559;DHT22;61650;48.882;2.092;2022-12-10T18:18:03;-1.30;89.20
51559;DHT22;61650;48.882;2.092;2022-12-10T18:20:32;-1.50;89.40
51559;DHT22;61650;48.882;2.092;2022-12-10T18:23:00;-1.60;90.10